Time;durP1;ratioP1;P1;durP2;ratioP2;P2;SDS_P1;SDS_P2;PMS_P1;PMS_P2;Temp;Humidity;BMP_temperature;BMP_pressure;BME280_temperature;BME280_humidity;BME280_pressure;Samples;Min_cycle;Max_cycle;Signal;HPM_P1;HPM_P2
2023/11/20 00:01:24;;;;;;;18.00;2.27;;;11.30;99.90;;;11.77;100.00;97778.28;5015755;28;20461;-78
2023/11/20 00:03:53;;;;;;;10.20;2.30;;;11.40;99.90;;;11.77;100.00;97782.72;5015791;28;20494;-78
2023/11/20 00:06:22;;;;;;;8.07;2.33;;;11.30;99.90;;;11.81;100.00;97789.16;5013138;28;20467;-78
2023/11/20 00:08:51;;;;;;;15.40;2.50;;;11.30;99.90;;;11.77;100.00;97782.72;5015882;28;20497;-78
2023/11/20 00:11:21;;;;;;;6.60;1.60;;;11.40;99.90;;;11.75;100.00;97789.97;5014803;28;20544;-78
2023/11/20 00:13:49;;;;;;;13.70;2.40;;;11.30;99.90;;;11.77;100.00;97794.00;5016177;28;20502;-79
2023/11/20 00:16:18;;;;;;;13.13;2.20;;;11.30;99.90;;;11.76;100.00;97786.38;5018345;28;20977;-78
2023/11/20 00:18:46;;;;;;;8.50;2.87;;;11.30;99.90;;;11.77;100.00;97793.19;5019138;28;20463;-78
2023/11/20 00:21:15;;;;;;;11.70;2.73;;;11.30;99.90;;;11.78;100.00;97800.06;5019131;28;20469;-77
2023/11/20 00:23:43;;;;;;;13.13;2.53;;;11.20;99.90;;;11.75;100.00;97789.97;5020068;28;20468;-77
2023/11/20 00:26:14;;;;;;;7.70;2.20;;;11.20;99.90;;;11.76;100.00;97779.31;5018810;28;20470;-78
2023/11/20 00:28:42;;;;;;;8.07;2.03;;;11.20;99.90;;;11.79;100.00;97778.09;5019930;28;20477;-78
2023/11/20 00:31:14;;;;;;;9.43;2.13;;;11.10;99.90;;;11.82;100.00;97772.44;5019649;28;21216;-78
2023/11/20 00:33:43;;;;;;;18.50;2.10;;;11.20;99.90;;;11.78;100.00;97773.84;5018064;28;21045;-79
2023/11/20 00:36:12;;;;;;;13.87;2.63;;;11.20;99.90;;;11.79;100.00;97775.47;5018254;28;20980;-77
2023/11/20 00:38:41;;;;;;;7.47;1.87;;;11.30;99.90;;;11.79;100.00;97776.28;5017071;28;20467;-78
2023/11/20 00:41:10;;;;;;;13.97;2.40;;;11.30;99.90;;;11.79;100.00;97780.72;5018633;28;20941;-78
2023/11/20 00:43:40;;;;;;;14.47;2.17;;;11.30;99.90;;;11.75;100.00;97780.31;5016254;28;20462;-78
2023/11/20 00:46:09;;;;;;;4.53;1.70;;;11.20;99.90;;;11.78;100.00;97773.84;5016478;28;20541;-78
2023/11/20 00:48:37;;;;;;;8.47;2.30;;;11.30;99.90;;;11.77;100.00;97777.47;5018057;28;20462;-78
2023/11/20 00:51:06;;;;;;;8.37;2.13;;;11.30;99.90;;;11.76;100.00;97781.13;5017259;28;20461;-78
2023/11/20 00:53:34;;;;;;;11.60;2.07;;;11.30;99.90;;;11.79;100.00;97780.72;5016389;28;20572;-78
2023/11/20 00:56:03;;;;;;;16.37;2.50;;;11.30;99.90;;;11.81;100.00;97776.06;5018821;28;20462;-78
2023/11/20 00:58:32;;;;;;;5.97;1.73;;;11.40;99.90;;;11.81;100.00;97778.69;5017687;28;20512;-78
2023/11/20 01:01:02;;;;;;;9.53;1.90;;;11.30;99.90;;;11.81;100.00;97771.66;5018059;28;20454;-78
2023/11/20 01:03:32;;;;;;;10.37;2.07;;;11.30;99.90;;;11.83;100.00;97771.44;5016707;28;20466;-78
2023/11/20 01:06:03;;;;;;;9.00;1.70;;;11.30;99.90;;;11.84;100.00;97765.19;5018124;28;20465;-78
2023/11/20 01:08:32;;;;;;;17.90;2.43;;;11.30;99.90;;;11.83;100.00;97768.84;5017760;28;20466;-78
2023/11/20 01:11:01;;;;;;;11.50;2.33;;;11.30;99.90;;;11.84;100.00;97768.63;5017934;28;20462;-78
2023/11/20 01:13:29;;;;;;;9.43;1.87;;;11.30;99.90;;;11.85;100.00;97764.19;5017918;28;20504;-78
2023/11/20 01:15:58;;;;;;;15.70;2.23;;;11.30;99.90;;;11.84;100.00;97767.81;5016623;28;20957;-78
2023/11/20 01:18:28;;;;;;;6.20;2.20;;;11.30;99.90;;;11.85;100.00;97769.44;5018685;28;20462;-78
2023/11/20 01:20:56;;;;;;;8.50;2.20;;;11.40;99.90;;;11.84;100.00;97767.81;5020059;28;20890;-79
2023/11/20 01:23:25;;;;;;;16.13;1.83;;;11.30;99.90;;;11.86;100.00;97768.44;5018556;28;21012;-78
2023/11/20 01:25:55;;;;;;;11.77;1.73;;;11.30;99.90;;;11.82;100.00;97772.44;5016241;28;20533;-78
2023/11/20 01:28:24;;;;;;;8.63;1.97;;;11.20;99.90;;;11.83;100.00;97779.31;5018612;28;22066;-78
2023/11/20 01:30:52;;;;;;;7.33;2.37;;;11.30;99.90;;;11.82;100.00;97775.06;5016398;28;20474;-78
2023/11/20 01:33:21;;;;;;;18.70;3.00;;;11.30;99.90;;;11.81;100.00;97768.22;5015474;28;20504;-78
2023/11/20 01:35:51;;;;;;;7.90;2.00;;;11.30;99.90;;;11.81;100.00;97773.44;5016847;28;20474;-78
2023/11/20 01:38:19;;;;;;;7.90;1.83;;;11.30;99.90;;;11.83;100.00;97774.06;5017604;28;20458;-79
2023/11/20 01:40:54;;;;;;;11.93;2.50;;;11.20;99.90;;;11.84;100.00;97771.25;5016241;28;20452;-79
2023/11/20 01:43:23;;;;;;;6.70;1.50;;;11.20;99.90;;;11.85;100.00;97774.66;5017419;28;20450;-78
2023/11/20 01:46:00;;;;;;;7.60;2.43;;;11.10;99.90;;;11.79;100.00;97765.00;5016143;28;20843;-78
2023/11/20 01:48:29;;;;;;;7.50;1.97;;;11.30;99.90;;;11.79;100.00;97762.38;5016255;28;20999;-78
2023/11/20 01:51:00;;;;;;;6.50;1.93;;;11.20;99.90;;;11.75;100.00;97761.97;5015459;28;20462;-78
2023/11/20 01:53:30;;;;;;;9.93;2.53;;;11.20;99.90;;;11.75;100.00;97748.06;5016490;28;20513;-78
2023/11/20 01:55:59;;;;;;;12.10;2.20;;;11.20;99.90;;;11.66;100.00;97759.72;5015983;28;20497;-78
2023/11/20 01:58:28;;;;;;;11.00;1.80;;;11.20;99.90;;;11.69;100.00;97754.09;5018214;28;20462;-78
2023/11/20 02:00:56;;;;;;;8.77;1.57;;;11.10;99.90;;;11.69;100.00;97756.72;5015610;28;20486;-79
2023/11/20 02:03:25;;;;;;;7.73;1.60;;;11.20;99.90;;;11.70;100.00;97760.94;5013614;28;20857;-78
2023/11/20 02:05:54;;;;;;;8.20;1.97;;;11.10;99.90;;;11.70;100.00;97756.50;5015905;28;20458;-79
2023/11/20 02:08:27;;;;;;;5.73;1.60;;;11.20;99.90;;;11.74;100.00;97762.16;5015604;28;20470;-77
2023/11/20 02:10:58;;;;;;;4.40;1.63;;;11.20;99.90;;;11.75;100.00;97763.78;5013565;28;20466;-76
2023/11/20 02:13:28;;;;;;;14.37;2.57;;;11.20;99.90;;;11.77;100.00;97751.28;5014340;28;20494;-78
2023/11/20 02:15:57;;;;;;;8.60;2.07;;;11.20;99.90;;;11.78;100.00;97753.72;5016905;28;20467;-78
2023/11/20 02:18:30;;;;;;;8.63;2.30;;;11.20;99.90;;;11.77;100.00;97748.66;5016346;28;20505;-77
2023/11/20 02:20:59;;;;;;;9.97;3.03;;;11.20;99.90;;;11.77;100.00;97752.09;5015785;28;20517;-78
2023/11/20 02:23:29;;;;;;;13.03;2.57;;;11.30;99.90;;;11.78;100.00;97750.28;5014701;28;20465;-78
2023/11/20 02:26:39;;;;;;;16.33;2.20;;;11.30;99.90;;;11.77;100.00;97752.09;5014877;28;20561;-78
2023/11/20 02:29:22;;;;;;;4.33;1.30;;;11.30;99.90;;;11.79;100.00;97757.13;5015111;28;20460;-78
2023/11/20 02:31:52;;;;;;;7.63;2.00;;;11.30;99.90;;;11.71;100.00;97757.34;5014860;28;20466;-79
2023/11/20 02:34:21;;;;;;;2.63;1.50;;;11.30;99.90;;;11.69;100.00;97754.09;5016572;28;20501;-78
2023/11/20 02:36:49;;;;;;;8.73;2.00;;;11.30;99.90;;;11.70;100.00;97760.94;5015180;28;20458;-78
2023/11/20 02:39:18;;;;;;;8.43;2.30;;;11.20;99.90;;;11.66;100.00;97767.59;5016035;28;20462;-78
2023/11/20 02:41:47;;;;;;;2.87;1.50;;;11.20;99.90;;;11.69;100.00;97764.56;5016589;28;20462;-78
2023/11/20 02:44:15;;;;;;;17.43;1.70;;;11.10;99.90;;;11.66;100.00;97755.31;5016061;28;20471;-78
2023/11/20 02:46:44;;;;;;;14.63;2.07;;;11.00;99.90;;;11.69;100.00;97757.50;5018734;28;20470;-79
2023/11/20 02:49:14;;;;;;;13.03;2.17;;;11.10;99.90;;;11.75;100.00;97758.53;5016891;28;21038;-78
2023/11/20 02:51:43;;;;;;;14.17;2.07;;;11.20;99.90;;;11.74;100.00;97756.94;5016264;28;21036;-78
2023/11/20 02:54:11;;;;;;;6.00;2.10;;;11.20;99.90;;;11.65;100.00;97745.00;5017452;28;20498;-78
2023/11/20 02:56:41;;;;;;;10.57;1.80;;;11.30;99.90;;;11.67;100.00;97750.84;5015946;28;20469;-78
2023/11/20 02:59:09;;;;;;;10.93;2.50;;;11.20;99.90;;;11.70;100.00;97743.41;5014867;28;20581;-78
2023/11/20 03:01:38;;;;;;;6.70;2.80;;;11.20;99.90;;;11.68;100.00;97747.22;5019122;28;20520;-79
2023/11/20 03:04:07;;;;;;;13.43;2.03;;;11.10;99.90;;;11.69;100.00;97748.84;5015762;28;20625;-78
2023/11/20 03:06:37;;;;;;;9.87;1.77;;;11.20;99.90;;;11.70;100.00;97745.22;5016223;28;20829;-78
2023/11/20 03:09:05;;;;;;;9.40;2.50;;;11.10;99.90;;;11.69;100.00;97746.22;5015459;28;20539;-79
2023/11/20 03:11:34;;;;;;;9.40;1.90;;;11.10;99.90;;;11.69;100.00;97743.63;5013651;28;20466;-78
2023/11/20 03:14:02;;;;;;;17.63;3.23;;;11.10;99.90;;;11.69;100.00;97751.47;5013809;28;20512;-78
2023/11/20 03:16:31;;;;;;;6.10;2.10;;;11.00;99.90;;;11.68;100.00;97728.91;5013255;28;20463;-78
2023/11/20 03:19:01;;;;;;;10.57;1.93;;;11.10;99.90;;;11.67;100.00;97729.88;5015261;28;20469;-78
2023/11/20 03:21:29;;;;;;;5.90;2.30;;;11.00;99.90;;;11.67;100.00;97729.88;5014639;28;20850;-79
2023/11/20 03:23:59;;;;;;;7.70;1.93;;;11.10;99.90;;;11.61;100.00;97727.09;5015158;28;20494;-78
2023/11/20 03:26:28;;;;;;;10.27;1.83;;;11.10;99.90;;;11.58;100.00;97717.03;5015081;28;20971;-79
2023/11/20 03:28:56;;;;;;;11.80;2.13;;;11.00;99.90;;;11.56;100.00;97721.63;5014395;28;21049;-78
2023/11/20 03:31:25;;;;;;;10.30;2.27;;;11.10;99.90;;;11.55;100.00;97719.22;5013431;28;20477;-78
2023/11/20 03:33:53;;;;;;;10.70;1.83;;;11.00;99.90;;;11.56;100.00;97724.25;5016482;28;20518;-78
2023/11/20 03:36:29;;;;;;;6.17;2.30;;;11.00;99.90;;;11.55;100.00;97725.28;5017515;28;20553;-78
2023/11/20 03:39:00;;;;;;;16.03;2.10;;;11.00;99.90;;;11.54;100.00;97721.03;5017129;28;20469;-78
2023/11/20 03:41:28;;;;;;;8.97;2.50;;;11.00;99.90;;;11.52;100.00;97714.41;5015224;28;20471;-78
2023/11/20 03:43:57;;;;;;;7.60;1.60;;;11.00;99.90;;;11.53;100.00;97711.56;5016064;28;20466;-78
2023/11/20 03:46:25;;;;;;;5.33;1.53;;;11.00;99.90;;;11.52;100.00;97717.81;5017434;28;20822;-78
2023/11/20 03:48:54;;;;;;;11.13;2.70;;;11.00;99.90;;;11.50;100.00;97719.81;5014926;28;20457;-79
2023/11/20 03:51:23;;;;;;;11.20;2.03;;;11.00;99.90;;;11.46;100.00;97718.59;5014145;28;20465;-79
2023/11/20 03:53:51;;;;;;;10.30;2.13;;;11.00;99.90;;;11.46;100.00;97723.03;5017549;28;20465;-79
2023/11/20 03:56:21;;;;;;;16.83;2.30;;;10.90;99.90;;;11.42;100.00;97722.63;5020833;28;20560;-79
2023/11/20 03:58:50;;;;;;;15.10;2.70;;;10.80;99.90;;;11.40;100.00;97735.13;5017184;28;20463;-79
2023/11/20 04:01:18;;;;;;;13.70;1.80;;;10.80;99.90;;;11.39;100.00;97738.75;5017779;28;20463;-78
2023/11/20 04:03:47;;;;;;;17.03;2.60;;;10.90;99.90;;;11.34;100.00;97738.53;5018607;28;20548;-78
2023/11/20 04:06:15;;;;;;;8.37;2.00;;;10.90;99.90;;;11.30;100.00;97745.19;5014558;28;20546;-76
2023/11/20 04:08:44;;;;;;;17.03;5.03;;;10.80;99.90;;;11.28;100.00;97736.69;5014771;28;20471;-79
2023/11/20 04:11:13;;;;;;;22.97;4.13;;;10.70;99.90;;;11.29;100.00;97727.84;5017222;28;20458;-79
2023/11/20 04:13:43;;;;;;;15.50;2.03;;;10.70;99.90;;;11.31;100.00;97731.09;5017580;28;20988;-78
2023/11/20 04:16:11;;;;;;;14.50;2.13;;;10.70;99.90;;;11.29;100.00;97730.47;5016452;28;20494;-78
2023/11/20 04:18:41;;;;;;;5.93;1.70;;;10.70;99.90;;;11.26;100.00;97728.25;5017760;28;20472;-78
2023/11/20 04:21:10;;;;;;;15.50;2.63;;;10.70;99.90;;;11.23;100.00;97731.28;5015207;28;20798;-78
2023/11/20 04:23:39;;;;;;;11.93;2.10;;;10.70;99.90;;;11.22;100.00;97731.47;5016779;28;20545;-78
2023/11/20 04:26:08;;;;;;;10.90;2.33;;;10.70;99.90;;;11.20;100.00;97739.53;5015842;28;20477;-78
2023/11/20 04:28:36;;;;;;;9.53;2.00;;;10.60;99.90;;;11.16;100.00;97733.06;5016172;28;20461;-78
2023/11/20 04:31:07;;;;;;;14.47;2.30;;;10.50;99.90;;;11.16;100.00;97733.06;5017409;28;20458;-78
2023/11/20 04:33:36;;;;;;;13.27;2.60;;;10.60;99.90;;;11.17;100.00;97733.88;5018325;28;21806;-78
2023/11/20 04:36:08;;;;;;;12.90;1.90;;;10.50;99.90;;;11.15;100.00;97730.63;5016738;28;21023;-77
2023/11/20 04:38:38;;;;;;;4.97;1.73;;;10.60;99.90;;;11.13;100.00;97730.84;5019920;28;20458;-78
2023/11/20 04:41:07;;;;;;;7.00;2.10;;;10.60;99.90;;;11.13;100.00;97738.72;5017958;28;20557;-77
2023/11/20 04:43:36;;;;;;;6.03;2.53;;;10.60;99.90;;;11.14;100.00;97735.09;5019003;28;20470;-78
2023/11/20 04:46:09;;;;;;;3.33;1.40;;;10.60;99.90;;;11.10;100.00;97734.69;5016577;28;20480;-78
2023/11/20 04:48:38;;;;;;;21.53;1.77;;;10.50;99.90;;;11.10;100.00;97729.44;5016054;28;20462;-78
2023/11/20 04:51:07;;;;;;;8.93;1.93;;;10.50;99.90;;;11.13;100.00;97730.84;5017852;28;21016;-78
2023/11/20 04:53:36;;;;;;;6.77;1.80;;;10.50;99.90;;;11.11;100.00;97730.22;5014346;28;21282;-77
2023/11/20 04:56:09;;;;;;;3.87;1.50;;;10.50;99.90;;;11.10;100.00;97733.88;5017774;28;20505;-78
2023/11/20 04:58:38;;;;;;;37.57;19.60;;;10.50;99.90;;;11.05;100.00;97728.41;5015737;28;20458;-76
2023/11/20 05:01:08;;;;;;;4.90;2.13;;;10.40;99.90;;;11.04;100.00;97738.06;5017203;28;20490;-77
2023/11/20 05:03:39;;;;;;;7.67;1.70;;;10.40;99.90;;;11.04;100.00;97735.44;5017219;28;20470;-78
2023/11/20 05:06:09;;;;;;;8.73;1.13;;;10.30;99.90;;;10.99;100.00;97739.66;5017212;28;20970;-79
2023/11/20 05:08:38;;;;;;;4.93;1.20;;;10.40;99.90;;;10.99;100.00;97743.09;5019219;28;20467;-78
2023/11/20 05:11:07;;;;;;;9.73;3.20;;;10.30;99.90;;;11.03;100.00;97743.50;5017729;28;20469;-78
2023/11/20 05:13:35;;;;;;;4.13;1.50;;;10.30;99.90;;;10.97;100.00;97734.63;5017100;28;20486;-78
2023/11/20 05:16:05;;;;;;;3.17;1.10;;;10.40;99.90;;;10.99;100.00;97743.09;5019505;28;20501;-78
2023/11/20 05:18:36;;;;;;;7.13;1.70;;;10.40;99.90;;;10.96;100.00;97737.44;5018014;28;20470;-78
2023/11/20 05:21:05;;;;;;;3.80;1.40;;;10.30;99.90;;;10.95;100.00;97735.84;5018076;28;20544;-78
2023/11/20 05:23:33;;;;;;;5.27;1.63;;;10.40;99.90;;;10.94;100.00;97731.59;5018498;28;20463;-78
2023/11/20 05:26:03;;;;;;;6.37;1.23;;;10.50;99.90;;;10.96;100.00;97733.03;5019839;28;20684;-78
2023/11/20 05:28:32;;;;;;;2.50;1.00;;;10.40;99.90;;;10.97;100.00;97726.78;5015570;28;20509;-78
2023/11/20 05:31:00;;;;;;;3.27;1.87;;;10.30;99.90;;;10.95;100.00;97735.84;5016594;28;20501;-78
2023/11/20 05:33:30;;;;;;;8.03;1.50;;;10.20;99.90;;;10.97;100.00;97725.97;5016095;28;20477;-78
2023/11/20 05:36:01;;;;;;;3.97;1.43;;;10.30;99.90;;;10.91;100.00;97721.53;5018278;28;20494;-78
2023/11/20 05:38:29;;;;;;;6.73;1.23;;;10.30;99.90;;;10.93;100.00;97722.94;5017708;28;20502;-78
2023/11/20 05:40:58;;;;;;;4.47;2.20;;;10.30;99.90;;;10.92;100.00;97725.75;5017901;28;20470;-79
2023/11/20 05:43:27;;;;;;;5.37;1.47;;;10.20;99.90;;;10.91;100.00;97724.16;5016278;28;20838;-78
2023/11/20 05:45:55;;;;;;;4.47;1.43;;;10.30;99.90;;;10.92;100.00;97715.31;5016988;28;20463;-78
2023/11/20 05:48:24;;;;;;;5.03;1.13;;;10.30;99.90;;;10.91;100.00;97718.91;5017276;28;20475;-77
2023/11/20 05:50:52;;;;;;;12.67;1.73;;;10.20;99.90;;;10.87;100.00;97718.50;5017812;28;20513;-77
2023/11/20 05:53:22;;;;;;;4.17;1.30;;;10.20;99.90;;;10.78;100.00;97716.25;5015022;28;20466;-77
2023/11/20 05:55:50;;;;;;;6.80;1.50;;;10.30;99.90;;;10.77;100.00;97712.84;5012915;28;20494;-77
2023/11/20 05:58:19;;;;;;;2.00;1.20;;;10.20;99.90;;;10.80;100.00;97716.84;5015057;28;20486;-77
2023/11/20 06:00:48;;;;;;;22.07;11.57;;;10.10;99.90;;;10.79;100.00;97707.41;5014061;28;20458;-77
2023/11/20 06:03:16;;;;;;;28.40;9.90;;;10.10;99.90;;;10.82;100.00;97709.63;5014629;28;20497;-79
2023/11/20 06:05:45;;;;;;;3.30;1.27;;;10.20;99.90;;;10.81;100.00;97708.00;5015188;28;20969;-78
2023/11/20 06:08:13;;;;;;;4.53;1.10;;;10.20;99.90;;;10.78;100.00;97697.94;5014989;28;20736;-78
2023/11/20 06:10:43;;;;;;;9.40;1.50;;;10.30;99.90;;;10.76;100.00;97699.97;5013994;28;21211;-78
2023/11/20 06:13:12;;;;;;;8.93;1.83;;;10.30;99.90;;;10.77;100.00;97706.78;5015398;28;20470;-78
2023/11/20 06:15:40;;;;;;;4.63;1.30;;;10.20;99.90;;;10.76;100.00;97711.22;5013971;28;20870;-78
2023/11/20 06:18:09;;;;;;;6.83;1.50;;;10.20;99.90;;;10.71;100.00;97708.41;5013221;28;20466;-77
2023/11/20 06:20:37;;;;;;;5.30;1.40;;;10.20;99.90;;;10.71;100.00;97712.81;5013564;28;20464;-79
2023/11/20 06:23:08;;;;;;;19.93;9.03;;;10.10;99.90;;;10.71;100.00;97718.03;5011721;28;20474;-79
2023/11/20 06:25:36;;;;;;;6.37;1.67;;;10.10;99.90;;;10.70;100.00;97711.19;5014394;28;20474;-78
2023/11/20 06:28:06;;;;;;;3.03;1.43;;;10.10;99.90;;;10.70;100.00;97719.84;5016216;28;20480;-78
2023/11/20 06:30:35;;;;;;;7.13;1.47;;;10.10;99.90;;;10.70;100.00;97722.47;5014296;28;20458;-80
2023/11/20 06:33:04;;;;;;;2.93;1.10;;;10.20;99.90;;;10.66;100.00;97731.69;5013736;28;20490;-78
2023/11/20 06:35:33;;;;;;;7.33;2.23;;;10.30;99.90;;;10.62;100.00;97734.91;5014948;28;20576;-78
2023/11/20 06:38:02;;;;;;;7.43;1.40;;;10.30;99.90;;;10.60;100.00;97735.91;5013040;28;20473;-78
2023/11/20 06:40:30;;;;;;;4.77;2.30;;;10.20;99.90;;;10.65;100.00;97735.34;5014777;28;20478;-79
2023/11/20 06:42:59;;;;;;;6.90;1.47;;;10.10;99.90;;;10.69;100.00;97733.13;5015457;28;20989;-78
2023/11/20 06:45:30;;;;;;;9.13;1.70;;;10.10;99.90;;;10.63;100.00;97731.28;5014658;28;20552;-78
2023/11/20 06:47:59;;;;;;;3.90;1.17;;;10.10;99.90;;;10.64;100.00;97738.13;5013523;28;20929;-78
2023/11/20 06:50:29;;;;;;;4.20;1.10;;;10.20;99.90;;;10.65;100.00;97739.75;5012790;28;20458;-78
2023/11/20 06:52:58;;;;;;;8.43;1.33;;;10.10;99.90;;;10.59;100.00;97738.72;5014798;28;20462;-78
2023/11/20 06:55:27;;;;;;;3.90;1.60;;;10.10;99.90;;;10.64;100.00;97745.97;5012791;28;20466;-78
2023/11/20 06:57:55;;;;;;;2.10;1.03;;;10.20;99.90;;;10.65;100.00;97747.59;5014625;28;20463;-78
2023/11/20 07:00:24;;;;;;;2.87;1.20;;;10.20;99.90;;;10.66;100.00;97734.31;5012852;28;20470;-78
2023/11/20 07:02:55;;;;;;;6.70;1.77;;;10.20;99.90;;;10.64;100.00;97732.91;5013066;28;20473;-78
2023/11/20 07:05:23;;;;;;;52.23;22.57;;;10.10;99.90;;;10.64;100.00;97735.50;5013455;28;20471;-76
2023/11/20 07:07:52;;;;;;;6.93;3.47;;;10.10;99.90;;;10.65;100.00;97743.19;5013979;28;20902;-78
2023/11/20 07:10:23;;;;;;;4.20;1.40;;;10.10;99.90;;;10.64;100.00;97736.31;5011555;28;20955;-78
2023/11/20 07:12:53;;;;;;;4.37;1.30;;;10.00;99.90;;;10.65;100.00;97734.53;5015642;28;20466;-77
2023/11/20 07:15:22;;;;;;;2.00;1.00;;;10.10;99.90;;;10.68;100.00;97729.72;5014708;28;20459;-78
2023/11/20 07:17:52;;;;;;;3.43;1.10;;;10.00;99.90;;;10.69;100.00;97733.91;5016234;28;20529;-78
2023/11/20 07:20:21;;;;;;;7.53;1.60;;;10.20;99.90;;;10.66;100.00;97733.50;5012414;28;20466;-78
2023/11/20 07:22:50;;;;;;;3.53;1.10;;;10.20;99.90;;;10.66;100.00;97738.72;5015851;28;20501;-78
2023/11/20 07:25:18;;;;;;;2.80;1.20;;;10.10;99.90;;;10.70;100.00;97742.56;5014764;28;20458;-78
2023/11/20 07:27:47;;;;;;;8.47;2.10;;;10.10;99.90;;;10.60;100.00;97735.91;5012974;28;20473;-79
2023/11/20 07:30:16;;;;;;;4.27;1.23;;;10.20;99.90;;;10.58;100.00;97751.00;5013479;28;21195;-79
2023/11/20 07:32:48;;;;;;;5.07;1.53;;;10.10;99.90;;;10.64;100.00;97754.63;5017303;28;20480;-78
2023/11/20 07:35:20;;;;;;;7.17;1.30;;;10.10;99.90;;;10.63;100.00;97754.81;5015771;28;20463;-78
2023/11/20 07:37:48;;;;;;;3.70;1.47;;;10.10;99.90;;;10.65;100.00;97753.63;5017945;28;20509;-78
2023/11/20 07:40:18;;;;;;;4.83;2.43;;;10.10;99.90;;;10.65;100.00;97760.66;5017273;28;20470;-78
2023/11/20 07:42:47;;;;;;;8.67;2.20;;;10.00;99.90;;;10.68;100.00;97763.72;5017276;28;20469;-79
2023/11/20 07:45:16;;;;;;;9.80;1.70;;;10.10;99.90;;;10.68;100.00;97768.13;5018194;28;20560;-78
2023/11/20 07:47:45;;;;;;;6.20;2.47;;;10.00;99.90;;;10.70;100.00;97763.50;5017558;28;20958;-78
2023/11/20 07:50:14;;;;;;;7.07;2.17;;;10.10;99.90;;;10.73;100.00;97766.53;5015758;28;20465;-76
2023/11/20 07:52:45;;;;;;;5.50;2.43;;;10.00;99.90;;;10.74;100.00;97764.72;5015097;28;20509;-79
2023/11/20 07:55:13;;;;;;;5.00;1.57;;;10.20;99.90;;;10.71;100.00;97767.72;5016807;28;22221;-79
2023/11/20 07:57:42;;;;;;;9.40;2.50;;;10.20;99.90;;;10.68;100.00;97762.91;5018701;28;20508;-80
2023/11/20 08:00:12;;;;;;;8.27;2.40;;;10.10;99.90;;;10.66;100.00;97768.31;5017267;28;20467;-79
2023/11/20 08:02:41;;;;;;;8.23;1.20;;;10.20;99.90;;;10.63;100.00;97757.44;5017692;28;20735;-80
2023/11/20 08:05:10;;;;;;;7.30;1.40;;;10.10;99.90;;;10.66;100.00;97754.41;5015856;28;20469;-80
2023/11/20 08:07:39;;;;;;;9.00;1.83;;;10.10;99.90;;;10.64;100.00;97754.63;5019113;28;20513;-80
2023/11/20 08:10:10;;;;;;;7.17;1.43;;;10.00;99.90;;;10.68;100.00;97749.81;5015972;28;20480;-79
2023/11/20 08:12:39;;;;;;;3.20;2.10;;;10.00;99.90;;;10.68;100.00;97755.06;5017503;28;20458;-80
2023/11/20 08:15:11;;;;;;;4.47;1.60;;;10.00;99.90;;;10.69;100.00;97754.06;5017415;28;20565;-80
2023/11/20 08:17:41;;;;;;;7.57;1.63;;;10.00;99.90;;;10.66;100.00;97757.84;5018102;28;20490;-80
2023/11/20 08:20:10;;;;;;;9.33;1.77;;;10.00;99.90;;;10.64;100.00;97759.06;5016146;28;20982;-80
2023/11/20 08:22:39;;;;;;;7.10;1.63;;;10.10;99.90;;;10.62;100.00;97746.16;5015441;28;20473;-80
2023/11/20 08:25:10;;;;;;;3.33;1.37;;;10.20;99.90;;;10.64;100.00;97748.59;5015930;28;20520;-80
2023/11/20 08:27:41;;;;;;;5.23;1.47;;;10.10;99.90;;;10.68;100.00;97749.81;5016402;28;20473;-80
2023/11/20 08:30:12;;;;;;;2.03;1.10;;;10.10;99.90;;;10.65;100.00;97751.03;5017029;28;20523;-80
2023/11/20 08:32:41;;;;;;;5.40;1.43;;;10.10;99.90;;;10.67;100.00;97750.81;5017222;28;20467;-79
2023/11/20 08:35:10;;;;;;;5.80;1.20;;;10.10;99.90;;;10.65;100.00;97751.03;5017521;28;20466;-80
2023/11/20 08:37:40;;;;;;;3.47;1.77;;;10.00;99.90;;;10.68;100.00;97749.81;5015461;28;20497;-79
2023/11/20 08:40:14;;;;;;;2.80;1.33;;;10.00;99.90;;;10.70;100.00;97747.81;5017682;28;20466;-80
2023/11/20 08:42:43;;;;;;;2.03;0.90;;;10.00;99.90;;;10.71;100.00;97749.44;5017496;28;20464;-80
2023/11/20 08:45:12;;;;;;;4.70;1.00;;;10.10;99.90;;;10.69;100.00;97746.22;5018232;28;20463;-80
2023/11/20 08:47:40;;;;;;;4.80;1.00;;;10.10;99.90;;;10.71;100.00;97749.44;5016601;28;20484;-79
2023/11/20 08:50:12;;;;;;;7.03;1.10;;;10.20;99.90;;;10.72;100.00;97749.25;5015615;28;20467;-80
2023/11/20 08:52:41;;;;;;;12.37;1.53;;;10.10;99.90;;;10.74;100.00;97743.81;5017823;28;20469;-80
2023/11/20 08:55:11;;;;;;;4.03;1.30;;;10.20;99.90;;;10.75;100.00;97748.03;5018727;28;20828;-80
2023/11/20 08:57:39;;;;;;;1.90;1.10;;;10.20;99.90;;;10.79;100.00;97738.81;5017506;28;20860;-79
2023/11/20 09:00:14;;;;;;;3.50;1.23;;;10.20;99.90;;;10.81;100.00;97744.63;5016507;28;20462;-79
2023/11/20 09:02:44;;;;;;;2.27;1.10;;;10.20;99.90;;;10.83;100.00;97743.44;5017439;28;20499;-75
2023/11/20 09:05:13;;;;;;;9.67;2.57;;;10.20;99.90;;;10.78;100.00;97732.75;5015701;28;20887;-79
2023/11/20 09:07:42;;;;;;;2.30;1.40;;;10.20;99.90;;;10.79;100.00;97737.00;5014701;28;20465;-79
2023/11/20 09:10:12;;;;;;;3.07;1.33;;;10.30;99.90;;;10.78;100.00;97738.00;5018064;28;20480;-79
2023/11/20 09:12:42;;;;;;;71.07;30.27;;;10.10;99.90;;;10.84;100.00;97744.25;5018033;28;20519;-78
2023/11/20 09:15:13;;;;;;;6.57;2.30;;;10.20;99.90;;;10.86;100.00;97745.69;5017330;28;21111;-79
2023/11/20 09:17:42;;;;;;;5.00;1.57;;;10.20;99.90;;;10.89;100.00;97742.66;5017830;28;20489;-79
2023/11/20 09:20:18;;;;;;;3.27;1.40;;;10.20;99.90;;;10.91;100.00;97745.06;5017554;28;21087;-78
2023/11/20 09:22:47;;;;;;;2.93;1.27;;;10.30;99.90;;;10.92;100.00;97744.06;5019345;28;20465;-79
2023/11/20 09:25:17;;;;;;;4.10;1.10;;;10.30;99.90;;;10.92;100.00;97742.28;5019335;28;20489;-79
2023/11/20 09:27:48;;;;;;;4.60;1.40;;;10.40;99.90;;;10.94;100.00;97744.66;5017098;28;20477;-79
2023/11/20 09:30:16;;;;;;;2.90;1.77;;;10.30;99.90;;;10.97;100.00;97746.91;5018168;28;21111;-78
2023/11/20 09:32:45;;;;;;;7.90;2.27;;;10.30;99.90;;;10.98;100.00;97748.50;5017542;28;20999;-78
2023/11/20 09:35:15;;;;;;;3.40;1.40;;;10.40;99.90;;;11.05;100.00;97738.88;5019228;28;20487;-79
2023/11/20 09:37:44;;;;;;;1.43;0.93;;;10.40;99.90;;;11.06;100.00;97737.88;5017894;28;20474;-79
2023/11/20 09:40:14;;;;;;;2.17;1.03;;;10.30;99.90;;;11.05;100.00;97733.66;5017256;28;20477;-78
2023/11/20 09:42:46;;;;;;;1.83;1.10;;;10.40;99.90;;;11.04;100.00;97743.28;5019391;28;20570;-79
2023/11/20 09:45:28;;;;;;;2.50;1.20;;;10.30;99.90;;;11.03;100.00;97743.50;5017460;28;20904;-79
2023/11/20 09:47:58;;;;;;;3.27;1.20;;;10.40;99.90;;;11.04;100.00;97734.63;5017131;28;20521;-79
2023/11/20 09:50:29;;;;;;;3.07;1.67;;;10.50;99.90;;;11.00;100.00;97739.47;5018159;28;20469;-78
2023/11/20 09:52:59;;;;;;;3.00;1.40;;;10.40;99.90;;;11.05;100.00;97741.50;5015583;28;20455;-79
2023/11/20 09:55:27;;;;;;;5.60;1.73;;;10.50;99.90;;;11.06;100.00;97730.03;5018067;28;20482;-79
2023/11/20 09:57:57;;;;;;;117.77;57.97;;;10.50;99.90;;;11.12;100.00;97729.22;5018112;28;20505;-76
2023/11/20 10:00:26;;;;;;;10.03;3.67;;;10.50;99.90;;;11.14;100.00;97735.09;5016052;28;21138;-78
2023/11/20 10:02:56;;;;;;;6.13;1.60;;;10.50;99.90;;;11.13;100.00;97738.72;5016827;28;20466;-78
2023/11/20 10:05:33;;;;;;;3.33;1.33;;;10.60;99.90;;;11.13;100.00;97738.72;5015856;28;20474;-78
2023/11/20 10:08:02;;;;;;;2.63;1.43;;;10.50;99.90;;;11.11;100.00;97732.84;5017636;28;20524;-78
2023/11/20 10:10:34;;;;;;;3.67;1.13;;;10.60;99.90;;;11.14;100.00;97735.09;5017699;28;20982;-78
2023/11/20 10:13:08;;;;;;;3.73;1.00;;;10.50;99.90;;;11.15;100.00;97725.41;5016616;28;20474;-78
2023/11/20 10:15:38;;;;;;;6.13;1.37;;;10.40;99.90;;;11.15;100.00;97715.75;5017663;28;20825;-78
2023/11/20 10:18:07;;;;;;;3.43;1.27;;;10.60;99.90;;;11.15;100.00;97715.75;5017236;28;20497;-78
2023/11/20 10:20:50;;;;;;;2.07;0.97;;;10.50;99.90;;;11.14;100.00;97714.16;5016433;28;20454;-81